| |
Missouri Department of Transportation

Social Media Facebook Twitter Flickr Blog YouTube RSS

Current AWOS Information

 
AWOS Home - General Info for all Airports
Current AWOS for all Airports - Current METAR for all Airports
Glossary - Disclaimer - Other Links


NEVADA--NEVADA MUNICIPAL--KNVD
 
Recent AWOS History
 
02/01/15     01:32 AM CST      07:32 GMT
Air Temperature 38°F (3°C ) 1st Cloud Layer Scattered at 500 feet
Dew Point 37°F (3°C) 2nd Cloud Layer Broken at 1,100 feet
Barometric Pressure 29.86 in Hg. 3rd Cloud Layer Overcast at 1,400 feet
Wind Speed 3 mph (3 knots) Density Altitude  
Peak Wind Gusts   Variable Wind Directions  
Wind Direction Quadrant(180°) Variable Visibility  
Visibility 4 statute miles  

Thunderstorm and Precipitation Identification:  Moderate Rain
Thunderstorm Remarks: 

Current METAR Record: METAR KNVD 010736Z AUTO 18003KT 4SM RA BKN009 OVC014 03/03 A2985 RMK AO2 P0005

 

 

 

About Us
How Do I...
Contact Us
Missouri Department of Transportation
Central Office
105 W. Capitol Avenue
Jefferson City, MO 65102
1-888-ASK-MODOT (275-6636)
1-866-831-6277 (Motor Carrier Services)
Drivers License Offices
horz_bar
| | |
Missouri State Government
© 2013 Missouri Department of Transportation. All Rights Reserved.   Privacy Policy.
 
 
 
 
RSS FeedYoutubeBlogFlickrTwitter Facebook